Flight Track Log - Related Links

Times and Time Zones

All times are in EDT time to prevent confusion due to time zone crossing. See the UPS9851 flight status page for this flight to view local times or setup timezone preferences in your user account.

Time Position Orientation Groundspeed Altitude Reporting Facility
EDT Latitude Longitude Course Direction KTS MPH feet Rate Location/Type
Mon 09:49:29 PM 27.9167 -82.6833 351° North 132 152 700  Level Tampa TRACON
Mon 09:49:47 PM 27.9333 -82.7000 319° Northwest 153 176 1,500 1,667 Climbing Tampa TRACON
Mon 09:51:53 PM 28.0333 -82.6333 30° Northeast 263 303 4,700 2,323 Climbing Tampa TRACON
Mon 09:55:00 PM 28.5342 -82.8538 351° North  Level Estimated
Mon 09:58:03 PM 28.5822 -82.7302 344° North 425 489 20,700  Level FlightAware ADS-B
Mon 09:59:10 PM 28.7406 -82.7796 344° North 443 510 22,400 1,636 Climbing FlightAware ADS-B
Mon 09:59:53 PM 28.8262 -82.8070 344° North 454 522 23,700 1,786 Climbing FlightAware ADS-B
Mon 10:00:34 PM 28.9082 -82.8335 344° North 463 533 24,900 1,750 Climbing FlightAware ADS-B
Mon 10:01:05 PM 28.9753 -82.8551 344° North 469 540 25,800 1,833 Climbing FlightAware ADS-B
Mon 10:01:46 PM 29.0610 -82.8825 344° North 474 545 27,100 1,808 Climbing FlightAware ADS-B
Mon 10:02:18 PM 29.1288 -82.9042 344° North 479 551 28,000 1,606 Climbing FlightAware ADS-B
Mon 10:02:57 PM 29.2046 -82.9286 344° North 486 559 29,000 1,833 Climbing FlightAware ADS-B
Mon 10:03:30 PM 29.2810 -82.9533 344° North 490 564 30,200 2,959 Climbing FlightAware ADS-B
Mon 10:04:10 PM 29.3720 -82.9828 344° North 472 543 32,600 3,333 Climbing FlightAware ADS-B
Mon 10:04:42 PM 29.4293 -83.0013 344° North 461 531 34,200 2,750 Climbing FlightAware ADS-B
Mon 10:05:22 PM 29.5199 -83.0308 344° North 458 527 35,900 2,582 Climbing FlightAware ADS-B
Mon 10:06:01 PM 29.5977 -83.0562 344° North 447 514 37,600 1,575 Climbing FlightAware ADS-B
Mon 10:06:42 PM 29.6770 -83.0818 344° North 446 513 38,000 296 Climbing FlightAware ADS-B
Mon 10:07:22 PM 29.7287 -83.0987 344° North 445 512 38,000  Level FlightAware ADS-B
Mon 10:08:00 PM 29.8347 -83.1335 344° North 448 516 38,000  Level FlightAware ADS-B
Mon 10:08:46 PM 29.9230 -83.1626 344° North 449 517 38,000  Level FlightAware ADS-B
Mon 10:09:44 PM 30.0319 -83.1985 344° North 449 517 38,000  Level FlightAware ADS-B
Mon 10:10:30 PM 30.1309 -83.2312 344° North 449 517 38,000  Level FlightAware ADS-B
Mon 10:11:10 PM 30.1942 -83.2522 344° North 449 517 38,000  Level FlightAware ADS-B
Mon 10:11:55 PM 30.3060 -83.2893 344° North 449 517 38,000  Level FlightAware ADS-B
Mon 10:12:50 PM 30.4141 -83.3257 344° North 447 514 38,000  Level FlightAware ADS-B
Mon 10:13:30 PM 30.4945 -83.3533 344° North 446 513 38,000  Level FlightAware ADS-B
Mon 10:14:05 PM 30.5638 -83.3766 344° North 446 513 38,000  Level FlightAware ADS-B
Mon 10:14:46 PM 30.6454 -83.4036 344° North 446 513 38,000  Level FlightAware ADS-B
Mon 10:15:17 PM 30.6892 -83.4167 344° North 437 503 38,000  Level Jacksonville Center
Mon 10:16:17 PM 30.8081 -83.4586 343° North 437 503 38,000  Level Jacksonville Center
Mon 10:17:17 PM 30.9375 -83.5031 344° North 437 503 38,000  Level Jacksonville Center
Mon 10:19:22 PM 31.1764 -83.5814 344° North 449 517 38,000  Level Atlanta Center
Mon 10:20:23 PM 31.2983 -83.6231 344° North 452 520 38,000  Level Atlanta Center
Mon 10:21:24 PM 31.4194 -83.6642 344° North 452 520 38,000  Level Atlanta Center
Mon 10:22:25 PM 31.5392 -83.7061 343° North 451 519 38,000  Level Atlanta Center
Mon 10:23:27 PM 31.6806 -83.7544 344° North 455 524 38,000  Level Atlanta Center
Mon 10:24:28 PM 31.8028 -83.7964 344° North 459 528 38,000  Level Atlanta Center
Mon 10:30:45 PM 42.4460 -76.4850 279° West 442 509 38,000  Level FlightAware ADS-B
Mon 10:31:00 PM 42.4503 -76.5234 278° West 441 507 38,000  Level FlightAware ADS-B (CYYZ)
Mon 10:31:22 PM 42.4560 -76.5830 279° West 442 509 38,000  Level FlightAware ADS-B
Mon 10:31:30 PM 42.4586 -76.6052 278° West 441 507 38,000  Level FlightAware ADS-B (CYYZ)
Mon 10:31:46 PM 42.4631 -76.6490 278° West 441 507 38,000  Level FlightAware ADS-B (KSDC)
Mon 10:31:57 PM 42.4660 -76.6810 279° West 442 509 38,000  Level FlightAware ADS-B
Mon 10:31:59 PM 42.4664 -76.6825 278° West 441 507 38,000  Level FlightAware ADS-B (CYYZ)
Mon 10:32:15 PM 42.4709 -76.7264 278° West 441 507 38,000  Level FlightAware ADS-B (KSDC)
Mon 10:32:27 PM 42.4740 -76.7630 278° West 443 510  Descending FlightAware ADS-B
Mon 10:34:29 PM 42.5096 -77.0992 279° West 443 510 38,000 17,273 Climbing FlightAware ADS-B (CYYZ)
Mon 10:34:39 PM 42.5130 -77.1280 279° West 444 511 38,000  Level FlightAware ADS-B
Mon 10:34:41 PM 42.5061 -77.0672 279° West 443 510 38,000  Level FlightAware ADS-B (KSDC)
Mon 10:34:59 PM 42.5184 -77.1802 279° West 443 510 38,000  Level FlightAware ADS-B (CYYZ)
Mon 10:35:15 PM 42.5230 -77.2250 279° West 445 512 38,000  Level FlightAware ADS-B
Mon 10:35:29 PM 42.5274 -77.2648 279° West 445 512 38,000  Level FlightAware ADS-B (CYYZ)
Mon 10:35:45 PM 42.5320 -77.3100 279° West 447 514 38,000  Level FlightAware ADS-B
Mon 10:35:59 PM 42.5358 -77.3442 279° West 446 513 38,000  Level FlightAware ADS-B (CYYZ)
Mon 10:36:22 PM 42.5430 -77.4110 279° West 448 516 38,000  Level FlightAware ADS-B
Mon 10:36:29 PM 42.5441 -77.4237 279° West 447 514 38,000  Level FlightAware ADS-B (CYYZ)
Mon 10:36:51 PM 42.5510 -77.4930 279° West 448 516 38,000  Level FlightAware ADS-B
Mon 10:36:59 PM 42.5537 -77.5161 278° West 447 514 38,000  Level FlightAware ADS-B (CYYZ)
Mon 10:37:27 PM 42.5620 -77.5930 278° West 448 516 38,000  Level FlightAware ADS-B
Mon 10:37:30 PM 42.5622 -77.5996 278° West 447 514 38,000  Level FlightAware ADS-B (CYYZ)
Mon 10:37:57 PM 42.5700 -77.6750 278° West 448 516 38,000  Level FlightAware ADS-B
Mon 10:38:00 PM 42.5705 -77.6810 278° West 447 514 38,000  Level FlightAware ADS-B (CYYZ)
Mon 10:38:29 PM 42.5783 -77.7584 278° West 448 516 38,000  Level FlightAware ADS-B (CYYZ)
Mon 10:38:33 PM 42.5800 -77.7770 278° West 449 517 38,000  Level FlightAware ADS-B
Mon 10:38:59 PM 42.5869 -77.8455 278° West 448 516 38,000  Level FlightAware ADS-B (CYYZ)
Mon 10:39:03 PM 42.5880 -77.8590 278° West 449 517 38,000  Level FlightAware ADS-B
Mon 10:39:29 PM 42.5956 -77.9336 278° West 446 513 38,000  Level FlightAware ADS-B (CYYZ)
Mon 10:39:34 PM 42.5970 -77.9460 278° West 448 516 38,000  Level FlightAware ADS-B
Mon 10:39:50 PM 42.6010 -77.9860 278° West 448 516  Descending FlightAware ADS-B
Mon 10:42:00 PM 42.6356 -78.3535 278° West 448 516 38,000 14,340 Climbing FlightAware ADS-B (CYYZ)
Mon 10:42:29 PM 42.6433 -78.4377 278° West 448 516 38,000  Level FlightAware ADS-B (CYYZ)
Mon 10:42:36 PM 42.6444 -78.4501 277° West 449 517 38,000  Level FlightAware ADS-B (CYHM)
Mon 10:42:59 PM 42.6509 -78.5219 278° West 449 517 38,000  Level FlightAware ADS-B (CYYZ)
Mon 10:43:29 PM 42.6586 -78.6063 278° West 450 518 38,000  Level FlightAware ADS-B (CYYZ)
Mon 10:43:35 PM 42.6600 -78.6215 277° West 450 518 38,000  Level FlightAware ADS-B (CYHM)
Mon 10:43:59 PM 42.6663 -78.6908 278° West 450 518 38,000  Level FlightAware ADS-B (CYYZ)
Mon 10:44:29 PM 42.6739 -78.7745 277° West 449 517 38,000  Level FlightAware ADS-B (CYYZ)
Mon 10:44:35 PM 42.6741 -78.7773 277° West 449 517 38,000  Level FlightAware ADS-B (CYHM)
Mon 10:45:00 PM 42.6814 -78.8599 277° West 447 514 38,000  Level FlightAware ADS-B (CYYZ)
Mon 10:45:29 PM 42.6884 -78.9430 277° West 447 514 38,000  Level FlightAware ADS-B (CYYZ)
Mon 10:45:33 PM 42.6893 -78.9531 276° West 448 516 38,000  Level FlightAware ADS-B (CYHM)
Mon 10:45:59 PM 42.6954 -79.0253 277° West 446 513 38,000  Level FlightAware ADS-B (CYYZ)
Mon 10:46:29 PM 42.7028 -79.1109 277° West 446 513 38,000  Level FlightAware ADS-B (CYYZ)
Mon 10:46:34 PM 42.7040 -79.1243 277° West 446 513 38,000  Level FlightAware ADS-B (CYHM)
Mon 10:46:59 PM 42.7102 -79.1940 277° West 444 511 38,000  Level FlightAware ADS-B (CYYZ)
Mon 10:47:15 PM 42.7132 -79.2285 277° West 444 511 38,000  Level FlightAware ADS-B (KFYG)
Mon 10:47:29 PM 42.7176 -79.2779 277° West 443 510 38,000  Level FlightAware ADS-B (CYYZ)
Mon 10:47:55 PM 42.7237 -79.3484 277° West 443 510 38,000  Level FlightAware ADS-B (KFYG)
Mon 10:48:00 PM 42.7246 -79.3596 277° West 442 509 38,000  Level FlightAware ADS-B (CYYZ)
Mon 10:48:29 PM 42.7319 -79.4444 277° West 442 509 38,000  Level FlightAware ADS-B (CYYZ)
Mon 10:48:36 PM 42.7333 -79.4616 277° West 443 510 38,000  Level FlightAware ADS-B (CYHM)
Mon 10:48:53 PM 34.8499 -84.6758 356° North 455 524 38,000  Level FlightAware ADS-B (KMDQ)
Mon 10:48:59 PM 42.7389 -79.5283 277° West 442 509 38,000  Level FlightAware ADS-B (CYYZ)
Mon 10:49:22 PM 42.7439 -79.5888 276° West 444 511 38,000  Level FlightAware ADS-B (KFYG)
Mon 10:49:30 PM 42.7458 -79.6115 277° West 443 510 38,000  Level FlightAware ADS-B (CYYZ)
Mon 10:49:59 PM 42.7526 -79.6938 277° West 443 510 38,000  Level FlightAware ADS-B (CYYZ)
Mon 10:50:03 PM 42.7530 -79.6993 276° West 444 511 38,000  Level FlightAware ADS-B (KFYG)
Mon 10:50:30 PM 42.7594 -79.7776 277° West 442 509 38,000  Level FlightAware ADS-B (CYYZ)
Mon 10:51:00 PM 42.7661 -79.8603 277° West 442 509 38,000  Level FlightAware ADS-B (CYYZ)
Mon 10:51:16 PM 42.7677 -79.8797 276° West 444 511 38,000  Level FlightAware ADS-B (CYKF)
Mon 10:51:30 PM 42.7729 -79.9448 277° West 442 509 38,000  Level FlightAware ADS-B (CYYZ)
Mon 10:51:33 PM 35.1614 -84.7049 356° North 453 521 38,000  Level FlightAware ADS-B (KMDQ)
Mon 10:52:00 PM 42.7794 -80.0275 276° West 443 510 38,000  Level FlightAware ADS-B (CYYZ)
Mon 10:52:06 PM 42.7808 -80.0453 276° West 443 510 38,000  Level FlightAware ADS-B (KFYG)
Mon 10:52:29 PM 42.7858 -80.1092 276° West 442 509 38,000  Level FlightAware ADS-B (CYYZ)
Mon 10:52:31 PM 35.2959 -84.7176 355° North 452 520 38,000  Level FlightAware ADS-B (KMDQ)
Mon 10:52:48 PM 42.7901 -80.1636 276° West 442 509 38,000  Level FlightAware ADS-B (KFYG)
Mon 10:53:00 PM 42.7918 -80.1863 276° West 442 509 38,000  Level FlightAware ADS-B (CYYZ)
Mon 10:53:10 PM 35.3805 -84.7258 355° North 452 520 38,000  Level FlightAware ADS-B (KMDQ)
Mon 10:53:18 PM 42.7965 -80.2456 276° West 442 509 38,000  Level FlightAware ADS-B (CYKF)
Mon 10:53:30 PM 42.7990 -80.2778 276° West 442 509 38,000  Level FlightAware ADS-B (CYYZ)
Mon 10:54:00 PM 42.8052 -80.3609 276° West 442 509 38,000  Level FlightAware ADS-B (CYYZ)
Mon 10:54:19 PM 42.8065 -80.3782 276° West 442 509 38,000  Level FlightAware ADS-B (CYKF)
Mon 10:54:28 PM 42.8108 -80.4392 276° West 442 509 38,000 -3,000 Level FlightAware ADS-B (CYYZ)
Mon 10:54:41 PM 35.5831 -84.7455 355° North 446 513 36,900  Descending FlightAware ADS-B (KMDQ)
Mon 10:54:55 PM 42.8159 -80.5102 276° West 442 509 38,000 1,375 Climbing FlightAware ADS-B (CYYZ)
Mon 10:55:29 PM 42.8227 -80.6075 276° West 442 509 38,000 -3,316 Level FlightAware ADS-B (CYYZ)
Mon 10:55:33 PM 35.6887 -84.7558 355° North 445 512 35,900  Descending FlightAware ADS-B (KMDQ)
Mon 10:56:00 PM 42.8288 -80.6943 276° West 442 509 38,000 -1,463 Climbing FlightAware ADS-B (CYYZ)
Mon 10:56:14 PM 35.7739 -84.7641 355° North 448 516 34,900  Descending FlightAware ADS-B (KMDQ)
Mon 10:56:29 PM 42.8345 -80.7777 276° West 442 509 38,000 4,133 Climbing FlightAware ADS-B (CYYZ)
Mon 10:56:59 PM 42.8403 -80.8612 276° West 442 509 38,000  Level FlightAware ADS-B (CYYZ)
Mon 10:57:29 PM 42.8460 -80.9437 276° West 442 509 38,000 -5,020 Level FlightAware ADS-B (CYYZ)
Mon 10:57:48 PM 35.9682 -84.7831 355° North 449 517 33,900  Descending FlightAware ADS-B (KMDQ)
Mon 10:57:59 PM 42.8516 -81.0262 276° West 442 509 38,000 8,483 Climbing FlightAware ADS-B (CYYZ)
Mon 10:58:17 PM 42.8065 -80.3782 275° West 443 510 38,000  Level FlightAware ADS-B (CYKF)
Mon 10:58:30 PM 42.8574 -81.1109 276° West 442 509 38,000  Level FlightAware ADS-B (CYYZ)
Mon 10:58:59 PM 42.8632 -81.1945 276° West 442 509 38,000  Level FlightAware ADS-B (CYYZ)
Mon 10:59:29 PM 42.8671 -81.2513 276° West 442 509 38,000  Level FlightAware ADS-B (CYYZ)
Mon 10:59:59 PM 42.8746 -81.3610 276° West 442 509 38,000 -9,652 Level FlightAware ADS-B (CYYZ)
Mon 11:00:15 PM 36.2757 -84.8134 355° North 462 532 30,600  Descending FlightAware ADS-B (KMDQ)
Mon 11:00:29 PM 42.8802 -81.4441 276° West 443 510 38,000 9,867 Climbing FlightAware ADS-B (CYYZ)
Mon 11:01:00 PM 42.8859 -81.5288 276° West 442 509 38,000 -10,667 Level FlightAware ADS-B (CYYZ)
Mon 11:01:14 PM 36.3756 -84.8234 355° North 465 535 30,000  Descending FlightAware ADS-B (KMDQ)
Mon 11:01:29 PM 42.8910 -81.6085 275° West 442 509 38,000 10,667 Climbing FlightAware ADS-B (CYYZ)
Mon 11:01:59 PM 42.8966 -81.6950 275° West 443 510 38,000  Level FlightAware ADS-B (CYYZ)
Mon 11:02:19 PM 42.9009 -81.7637 275° West 444 511 38,000  Level FlightAware ADS-B (KPTK)
Mon 11:02:29 PM 42.9019 -81.7793 275° West 443 510 38,000 -15,081 Level FlightAware ADS-B (CYYZ)
Mon 11:02:56 PM 36.6191 -84.8476 356° North 439 505 28,700  Descending FlightAware ADS-B
Mon 11:03:00 PM 42.9072 -81.8653 275° West 443 510 38,000 24,261 Climbing FlightAware ADS-B (CYYZ)
Mon 11:03:19 PM 42.9045 -81.8217 275° West 442 509 38,000  Level FlightAware ADS-B (KPTK)
Mon 11:03:30 PM 42.9118 -81.9434 275° West 443 510 38,000 -18,000 Level FlightAware ADS-B (CYYZ)
Mon 11:03:57 PM 36.7373 -84.8593 355° North 425 489 26,600  Descending FlightAware ADS-B
Mon 11:04:00 PM 42.9170 -82.0321 275° West 443 510 38,000 36,000 Climbing FlightAware ADS-B (CYYZ)
Mon 11:04:16 PM 42.9204 -82.0896 275° West 443 510 38,000  Level FlightAware ADS-B (KPTK)
Mon 11:04:30 PM 42.9219 -82.1147 275° West 443 510 38,000 -18,837 Level FlightAware ADS-B (CYYZ)
Mon 11:04:59 PM 36.8489 -84.8708 355° North 416 479 24,500  Descending FlightAware ADS-B
Mon 11:05:00 PM 42.9268 -82.1985 275° West 443 510 38,000 26,129 Climbing FlightAware ADS-B (CYYZ)
Mon 11:05:30 PM 42.9314 -82.2777 275° West 442 509 38,000  Level FlightAware ADS-B (CYYZ)
Mon 11:05:39 PM 42.9338 -82.3211 274° West 442 509 38,000  Level FlightAware ADS-B (KPTK)
Mon 11:06:00 PM 42.9364 -82.3662 275° West 441 507 38,000  Level FlightAware ADS-B (CYYZ)
Mon 11:06:15 PM 42.9388 -82.4079 274° West 441 507 38,000  Level FlightAware ADS-B (KPTK)
Mon 11:06:30 PM 42.9410 -82.4479 275° West 440 506 38,000  Level FlightAware ADS-B (CYYZ)
Mon 11:07:00 PM 42.9457 -82.5311 275° West 439 505 38,000 -34,452 Level FlightAware ADS-B (CYYZ)
Mon 11:07:01 PM 37.0721 -84.8538 26° Northeast 389 448 20,200  Descending FlightAware ADS-B
Mon 11:07:29 PM 42.9504 -82.6158 275° West 439 505 38,000 29,667 Climbing FlightAware ADS-B (CYYZ)
Mon 11:07:37 PM 42.9521 -82.6484 274° West 438 504 38,000  Level FlightAware ADS-B (KPTK)
Mon 11:07:59 PM 42.9549 -82.6987 275° West 438 504 38,000  Level FlightAware ADS-B (CYYZ)
Mon 11:08:13 PM 42.9571 -82.7412 274° West 438 504 38,000  Level FlightAware ADS-B (KPTK)
Mon 11:08:29 PM 42.9593 -82.7814 275° West 437 503 38,000  Level FlightAware ADS-B (CYYZ)
Mon 11:08:59 PM 42.9634 -82.8596 275° West 436 502 38,000 -40,182 Level FlightAware ADS-B (CYYZ)
Mon 11:09:02 PM 37.2801 -84.7951 342° North 383 441 15,900  Descending FlightAware ADS-B
Mon 11:09:30 PM 42.9679 -82.9451 274° West 434 499 38,000 41,438 Climbing FlightAware ADS-B (CYYZ)
Mon 11:09:34 PM 42.9693 -82.9714 274° West 434 499 38,000  Level FlightAware ADS-B (KPTK)
Mon 11:09:59 PM 42.9720 -83.0239 274° West 432 497 38,000 -50,143 Level FlightAware ADS-B (CYYZ)
Mon 11:10:02 PM 37.3729 -84.8349 341° North 372 428 14,600  Descending FlightAware ADS-B
Mon 11:10:20 PM 42.9749 -83.0828 274° West 433 498 38,000 52,000 Climbing FlightAware ADS-B (KPTK)
Mon 11:10:29 PM 42.9761 -83.1068 274° West 431 496 38,000  Level FlightAware ADS-B (CYYZ)
Mon 11:10:59 PM 42.9804 -83.1923 274° West 431 496 38,000  Level FlightAware ADS-B (CYYZ)
Mon 11:11:18 PM 42.9832 -83.2482 274° West 431 496 38,000  Level FlightAware ADS-B (KPTK)
Mon 11:11:29 PM 42.9844 -83.2721 274° West 430 495 38,000  Level FlightAware ADS-B (CYYZ)
Mon 11:12:00 PM 42.9884 -83.3540 274° West 429 494 38,000  Level FlightAware ADS-B (CYYZ)
Mon 11:12:07 PM 42.9900 -83.3871 274° West 431 496 38,000  Level FlightAware ADS-B (KPTK)
Mon 11:12:30 PM 42.9923 -83.4343 274° West 430 495 38,000  Level FlightAware ADS-B (CYYZ)
Mon 11:13:00 PM 42.9963 -83.5174 274° West 430 495 38,000 -50,813 Level FlightAware ADS-B (CYYZ)
Mon 11:13:02 PM 37.6576 -84.9635 324° Northwest 350 403 10,900  Descending FlightAware ADS-B
Mon 11:13:30 PM 43.0001 -83.5990 274° West 430 495 38,000 45,167 Climbing FlightAware ADS-B (CYYZ)
Mon 11:13:38 PM 43.0012 -83.6223 274° West 431 496 38,000  Level FlightAware ADS-B (KPTK)
Mon 11:14:00 PM 43.0039 -83.6789 274° West 431 496 38,000 -52,688 Level FlightAware ADS-B (CYYZ)
Mon 11:14:10 PM 37.7333 -85.0646 312° West 353 406 9,900  Descending FlightAware ADS-B
Mon 11:14:30 PM 43.0079 -83.7627 274° West 431 496 38,000 58,138 Climbing FlightAware ADS-B (CYYZ)
Mon 11:14:39 PM 43.0096 -83.8002 274° West 432 497 38,000  Level FlightAware ADS-B (KPTK)
Mon 11:14:59 PM 43.0116 -83.8438 274° West 432 497 38,000 -52,875 Level FlightAware ADS-B (CYYZ)
Mon 11:15:11 PM 37.7956 -85.1508 313° West 306 352 9,800  Descending FlightAware ADS-B
Mon 11:15:18 PM 43.0144 -83.9070 273° West 434 499 38,000 94,000 Climbing FlightAware ADS-B (KPTK)
Mon 11:15:29 PM 43.0152 -83.9251 274° West 433 498 38,000  Level FlightAware ADS-B (CYYZ)
Mon 11:16:00 PM 43.0187 -84.0068 274° West 432 497 38,000 -42,000 Level FlightAware ADS-B (CYYZ)
Mon 11:16:11 PM 37.8418 -85.2316 278° West 295 339 8,600  Descending FlightAware ADS-B
Mon 11:16:29 PM 43.0223 -84.0879 274° West 431 496 38,000 63,000 Climbing FlightAware ADS-B (CYYZ)
Mon 11:16:39 PM 43.0233 -84.1124 274° West 431 496 38,000  Level FlightAware ADS-B (CYYZ)
Mon 11:16:59 PM 43.0262 -84.1807 273° West 431 496 38,000 -58,313 Level FlightAware ADS-B (KPTK)
Mon 11:17:11 PM 37.8464 -85.3370 274° West 293 337 6,900 -27,167 Descending FlightAware ADS-B
Mon 11:18:11 PM 37.8524 -85.4359 275° West 282 325 5,400 17,119 Descending FlightAware ADS-B
Mon 11:19:00 PM 43.0378 -84.5059 272° West 423 487 38,000 -500 Climbing FlightAware ADS-B (KPTK)
Mon 11:19:11 PM 37.8597 -85.5343 276° West 280 322 4,900  Descending FlightAware ADS-B
Mon 11:19:39 PM 43.0356 -84.6022 263° West 421 484 38,000  Climbing FlightAware ADS-B (KPTK)
Mon 11:20:10 PM 37.8712 -85.6291 302° West 273 314 4,900  Descending FlightAware ADS-B
Mon 11:20:14 PM 43.0220 -84.7022 258° West 419 482 38,000 40,531 Climbing FlightAware ADS-B (KPTK)
Mon 11:20:59 PM 43.0040 -84.8182 258° West 415 478 38,000 -35,571 Level FlightAware ADS-B (KPTK)
Mon 11:21:10 PM 37.9361 -85.6663 345° North 256 295 4,800  Descending FlightAware ADS-B
Mon 11:21:37 PM 42.9888 -84.9140 258° West 414 476 38,000 -1,377 Climbing FlightAware ADS-B (KPTK)
Mon 11:22:11 PM 38.0035 -85.6885 345° North 211 243 3,400  Descending FlightAware ADS-B
Mon 11:22:18 PM 42.9732 -85.0113 258° West 412 474 38,000 -1,000 Climbing FlightAware ADS-B (KPTK)
Mon 11:23:11 PM 38.0541 -85.7051 346° North 176 203 2,400 -20,092 Descending FlightAware ADS-B
Mon 11:24:07 PM 38.0964 -85.7189 345° North 143 165 1,500 -800 Descending FlightAware ADS-B
Mon 11:24:41 PM 38.1148 -85.7250 344° North 127 146 1,200 7,399 Descending FlightAware ADS-B
Mon 11:29:03 PM 42.8056 -86.0114 257° West 401 461 38,000 6,067 Climbing FlightAware ADS-B
Mon 11:30:38 PM 42.7662 -86.2408 257° West 406 467 37,300 -857 Descending FlightAware ADS-B
Mon 11:31:09 PM 42.7517 -86.3243 257° West 414 476 36,200 -2,262 Descending FlightAware ADS-B
Mon 11:31:39 PM 42.7397 -86.3932 257° West 424 488 35,000 -2,296 Descending FlightAware ADS-B
Mon 11:32:30 PM 42.7145 -86.5367 257° West 439 505 33,100 -2,165 Descending FlightAware ADS-B
Mon 11:33:16 PM 42.6975 -86.6335 257° West 443 510 31,500 -1,793 Descending FlightAware ADS-B
Mon 11:33:57 PM 42.6788 -86.7389 256° West 451 519 30,500 -1,650 Descending FlightAware ADS-B
Mon 11:34:36 PM 42.6534 -86.8794 256° West 436 502 29,300 -2,000 Descending FlightAware ADS-B
Mon 11:35:06 PM 42.6383 -86.9598 256° West 431 496 28,200 -1,875 Descending FlightAware ADS-B
Mon 11:35:40 PM 42.6221 -87.0451 256° West 428 493 27,300 -1,680 Descending FlightAware ADS-B
Mon 11:36:21 PM 42.6016 -87.1532 256° West 419 482 26,100 -1,833 Descending FlightAware ADS-B
Mon 11:36:52 PM 42.5868 -87.2311 256° West 417 480 25,100 -1,875 Descending FlightAware ADS-B
Mon 11:37:25 PM 42.5788 -87.2741 256° West 408 470 24,100 -892 Descending FlightAware ADS-B
Mon 11:38:06 PM 42.5531 -87.4105 256° West 357 411 24,000 -75 Descending FlightAware ADS-B
Mon 11:38:45 PM 42.5379 -87.4916 256° West 341 392 24,000 -237 Level FlightAware ADS-B
Mon 11:39:22 PM 42.5245 -87.5631 256° West 342 394 23,700 -2,057 Descending FlightAware ADS-B
Mon 11:39:55 PM 42.5131 -87.6235 256° West 365 420 21,600 -3,940 Descending FlightAware ADS-B
Mon 11:40:29 PM 42.4953 -87.7165 255° West 394 453 19,300 -3,094 Descending FlightAware ADS-B
Mon 11:40:59 PM 42.4815 -87.7885 255° West 381 438 18,300 -2,459 Descending FlightAware ADS-B
Mon 11:41:30 PM 42.4679 -87.8604 255° West 372 428 16,800 -1,944 Descending FlightAware ADS-B
Mon 11:42:10 PM 42.4550 -87.9273 255° West 341 392 16,000 -675 Descending FlightAware ADS-B
Mon 11:42:50 PM 42.4362 -88.0258 256° West 306 352 15,900 -75 Descending FlightAware ADS-B
Mon 11:43:30 PM 42.4224 -88.0982 255° West 302 348 15,900  Level FlightAware ADS-B
Mon 11:44:14 PM 42.4110 -88.1584 256° West 304 350 15,900  Level FlightAware ADS-B
Mon 11:44:55 PM 42.3921 -88.2561 255° West 302 348 15,900 -333 Level FlightAware ADS-B
Mon 11:45:26 PM 42.3833 -88.2953 256° West 302 348 15,500 -1,100 Descending FlightAware ADS-B
Mon 11:45:55 PM 42.3617 -88.3613 245° Southwest 287 330 14,800 -1,535 Descending FlightAware ADS-B
Mon 11:46:52 PM 42.3322 -88.4477 246° West 266 306 13,300 -1,657 Descending FlightAware ADS-B
Mon 11:47:40 PM 42.3076 -88.5251 248° West 267 307 11,900 -881 Descending FlightAware ADS-B
Mon 11:48:41 PM 42.2921 -88.6184 262° West 237 273 11,700 -857 Descending FlightAware ADS-B
Mon 11:49:39 PM 42.2841 -88.7007 262° West 209 241 10,200 -1,692 Descending FlightAware ADS-B
Mon 11:49:59 PM 42.2817 -88.7254 262° West 196 226 9,500 -2,077 Descending FlightAware ADS-B
Mon 11:50:31 PM 42.2790 -88.7531 262° West 191 220 8,400 -1,800 Descending FlightAware ADS-B
Mon 11:50:59 PM 42.2750 -88.7916 262° West 163 188 7,700 -2,000 Descending FlightAware ADS-B
Mon 11:51:28 PM 42.2790 -88.7531 263° West 156 180 6,500 -2,455 Descending FlightAware ADS-B
Mon 11:51:43 PM 42.2710 -88.8354 262° West 156 180 5,900 -2,129 Descending FlightAware ADS-B
Mon 11:51:59 PM 42.2697 -88.8476 262° West 154 177 5,400 -2,182 Descending FlightAware ADS-B
Mon 11:52:16 PM 42.2677 -88.8673 261° West 152 175 4,700 -2,000 Descending FlightAware ADS-B
Mon 11:52:50 PM 42.2640 -88.8982 260° West 145 167 3,700 -1,647 Descending FlightAware ADS-B
Mon 11:53:07 PM 42.2626 -88.9109 260° West 134 154 3,300 -1,119 Descending FlightAware ADS-B
Mon 11:53:49 PM 42.2543 -88.9433 238° Southwest 120 138 2,600 -1,000 Descending FlightAware ADS-B
Mon 11:56:00 PM 42.0383 -88.7616 148° Southeast  Level Estimated
Mon 11:57:00 PM 41.9393 -88.6788 148° Southeast  Level Estimated
Mon 11:58:00 PM 41.8403 -88.5962 148° Southeast  Level Estimated
Mon 11:59:00 PM 41.7411 -88.5139 148° Southeast  Level Estimated
Tue 12:00:00 AM 41.6420 -88.4319 148° Southeast  Level Estimated
Tue 12:01:00 AM 41.5427 -88.3501 148° Southeast  Level Estimated
Tue 12:02:00 AM 41.4434 -88.2686 148° Southeast  Level Estimated
Tue 12:03:00 AM 41.3441 -88.1873 148° Southeast  Level Estimated
Tue 12:04:00 AM 41.2447 -88.1062 148° Southeast  Level Estimated
Tue 12:05:00 AM 41.1452 -88.0254 149° Southeast  Level Estimated
Tue 12:06:00 AM 41.0457 -87.9449 149° Southeast  Level Estimated
Tue 12:07:00 AM 40.9461 -87.8646 149° Southeast  Level Estimated
Tue 12:08:00 AM 40.8465 -87.7845 149° Southeast  Level Estimated
Tue 12:09:00 AM 40.7468 -87.7047 149° Southeast  Level Estimated
Tue 12:10:00 AM 40.6470 -87.6251 149° Southeast  Level Estimated
Tue 12:11:00 AM 40.5472 -87.5457 149° Southeast  Level Estimated
Tue 12:12:00 AM 40.4474 -87.4666 149° Southeast  Level Estimated
Tue 12:13:00 AM 40.3475 -87.3877 149° Southeast  Level Estimated
Tue 12:14:00 AM 40.2475 -87.3091 149° Southeast  Level Estimated
Tue 12:15:00 AM 40.1475 -87.2307 149° Southeast  Level Estimated
Tue 12:16:00 AM 40.0474 -87.1525 149° Southeast  Level Estimated
Tue 12:17:00 AM 39.9473 -87.0745 149° Southeast  Level Estimated
Tue 12:18:00 AM 39.8471 -86.9968 149° Southeast  Level Estimated
Tue 12:19:00 AM 39.7469 -86.9193 149° Southeast  Level Estimated
Tue 12:20:00 AM 39.6466 -86.8420 149° Southeast  Level Estimated
Tue 12:21:00 AM 39.5463 -86.7650 149° Southeast  Level Estimated
Tue 12:22:00 AM 39.4459 -86.6881 149° Southeast  Level Estimated
Tue 12:23:00 AM 39.3455 -86.6115 149° Southeast  Level Estimated
Tue 12:24:00 AM 39.2450 -86.5351 150° Southeast  Level Estimated
Tue 12:25:00 AM 39.1445 -86.4590 150° Southeast  Level Estimated
Tue 12:26:00 AM 39.0439 -86.3830 150° Southeast  Level Estimated
Tue 12:27:00 AM 38.9433 -86.3073 150° Southeast  Level Estimated
Tue 12:28:00 AM 38.8426 -86.2318 150° Southeast  Level Estimated
Tue 12:29:00 AM 38.7419 -86.1564 150° Southeast  Level Estimated
Tue 12:30:00 AM 38.6411 -86.0814 150° Southeast  Level Estimated
Tue 12:31:00 AM 38.5403 -86.0065 150° Southeast  Level Estimated
Tue 12:32:00 AM 38.4394 -85.9318 150° Southeast  Level Estimated
Tue 12:33:00 AM 38.3385 -85.8573 150° Southeast  Level Estimated

Login

Don't have an account? Register now (free) for customized features, flight alerts, and more!